Franklin, Indiana
Current Conditions -  °F | °C
As of 3:53 AM on Sunday 26 Oct 2014 (Local Time) from KGEZ Reporting Station
Clear Clear  
Wind Chill: 50°   Ceiling: Unl
Heat Index: 50°   Visibility: 10mi
Dew Point: 35°   Wind: 6mph
Humidity: 57%   Direction: 300°WNW
Pressure: 29.98"   Gusts: NA
Location:  39.48°N, 86.06°W
Report Text: KGEZ 260753Z AUTO 30005KT 10SM CLR 10/02 A2998 RMK AO2 SLP150 T01000017
Loading
Personal Weather Stations






























Interactive Weather Map New forecast layout! Learn more

10-Day Weather Forecast

Advertisements
Track Severe Weather on mobile